PWSweather.com
Personal Weather Stations
Station Observations
238362
MilevskoCZ 39901

MilevskoCZ 39901

Lat: 49.44648754, Lon: 14.36534017

Elevation: 1558

Station Type: W-8681

http://www.meteomilevsko.cz

Latest ConditionsUpdated 10:45:08 AM GMT+01:01 Thursday, Jul 18, 2019
Currently Today's Max Today's Min Today's Average
Temperature 77.7°F25.4°C 77.7°F25.4°C 56.8°F13.8°C 63.8°F17.7°C
Dew Point 54.1°F12.3°C 57.8°F14.3°C 52.0°F11.1°C 54.6°F12.6°C
Winds 3.8 mph SSE6.1 kmh SSE 4.5 mph -7.2 kmh - - 1.5 mph 2.4 kmh
Wind Gusts 6.0 mph9.7 kmh 11.4 mph18.3 kmh - -
Humidity 44% 94% 44% 75%
Pressure 30.10 in1019.3 mb 30.11 in1019.6 mb 30.09 in1019.0 mb -
Precipitation - 0.02 in0.5 mm - -
Hour Temp Dew Point Humidity Winds Wind Gusts Pressure Precip Precip Rate Daily Precip Total
10:45 AM 77.7°F25.4°C 54.1°F12.3°C 44% 3.8 mph SSE6.1 kmh SSE 6.0 mph9.7 kmh 30.10 in1019.3 mb 0.00 in0.0 mm 0.00 in0.0 mm 0.02 in0.5 mm
10:30 AM 75.0°F23.9°C 52.9°F11.6°C 46% 2.2 mph NE3.5 kmh NE 6.0 mph9.7 kmh 30.10 in1019.3 mb 0.00 in0.0 mm 0.00 in0.0 mm 0.02 in0.5 mm
10:15 AM 76.3°F24.6°C 54.0°F12.2°C 46% 4.5 mph N7.2 kmh N 6.0 mph9.7 kmh 30.10 in1019.3 mb 0.00 in0.0 mm 0.00 in0.0 mm 0.02 in0.5 mm
10:00 AM 75.6°F24.2°C 53.9°F12.2°C 47% 2.2 mph N3.5 kmh N 5.4 mph8.7 kmh 30.10 in1019.3 mb 0.00 in0.0 mm 0.00 in0.0 mm 0.02 in0.5 mm
09:45 AM 74.5°F23.6°C 53.5°F11.9°C 48% 2.2 mph NNE3.5 kmh NNE 6.0 mph9.7 kmh 30.10 in1019.3 mb 0.00 in0.0 mm 0.00 in0.0 mm 0.02 in0.5 mm
09:30 AM 75.0°F23.9°C 53.5°F11.9°C 47% Calm Calm 4.5 mph7.2 kmh 30.10 in1019.3 mb 0.00 in0.0 mm 0.00 in0.0 mm 0.02 in0.5 mm
09:15 AM 73.6°F23.1°C 53.3°F11.8°C 49% 3.1 mph SE5.0 kmh SE 6.0 mph9.7 kmh 30.10 in1019.3 mb 0.00 in0.0 mm 0.00 in0.0 mm 0.02 in0.5 mm
09:00 AM 73.4°F23.0°C 52.0°F11.1°C 47% 4.5 mph ESE7.2 kmh ESE 6.0 mph9.7 kmh 30.10 in1019.3 mb 0.00 in0.0 mm 0.00 in0.0 mm 0.02 in0.5 mm
08:45 AM 72.1°F22.3°C 54.6°F12.6°C 54% 2.2 mph SE3.5 kmh SE 5.4 mph8.7 kmh 30.10 in1019.3 mb 0.00 in0.0 mm 0.00 in0.0 mm 0.02 in0.5 mm
08:30 AM 71.6°F22.0°C 55.1°F12.8°C 56% 3.1 mph ESE5.0 kmh ESE 5.4 mph8.7 kmh 30.09 in1019.0 mb 0.00 in0.0 mm 0.00 in0.0 mm 0.02 in0.5 mm
08:15 AM 71.2°F21.8°C 54.3°F12.4°C 55% 3.1 mph SE5.0 kmh SE 5.4 mph8.7 kmh 30.10 in1019.3 mb 0.00 in0.0 mm 0.00 in0.0 mm 0.02 in0.5 mm
08:00 AM 69.8°F21.0°C 53.9°F12.2°C 57% 2.2 mph S3.5 kmh S 8.3 mph13.4 kmh 30.10 in1019.3 mb 0.00 in0.0 mm 0.00 in0.0 mm 0.02 in0.5 mm
07:45 AM 70.2°F21.2°C 56.1°F13.4°C 61% 3.1 mph N5.0 kmh N 4.5 mph7.2 kmh 30.10 in1019.3 mb 0.00 in0.0 mm 0.00 in0.0 mm 0.02 in0.5 mm
07:30 AM 68.4°F20.2°C 56.2°F13.4°C 65% 0.7 mph NW1.1 kmh NW 3.8 mph6.1 kmh 30.10 in1019.3 mb 0.00 in0.0 mm 0.00 in0.0 mm 0.02 in0.5 mm
07:15 AM 68.0°F20.0°C 56.2°F13.4°C 66% Calm Calm 3.1 mph5.0 kmh 30.10 in1019.3 mb 0.00 in0.0 mm 0.00 in0.0 mm 0.02 in0.5 mm
07:00 AM 66.9°F19.4°C 55.6°F13.1°C 67% 0.7 mph NNW1.1 kmh NNW 2.2 mph3.5 kmh 30.09 in1019.0 mb 0.00 in0.0 mm 0.00 in0.0 mm 0.02 in0.5 mm
06:45 AM 66.9°F19.4°C 55.6°F13.1°C 67% 0.7 mph N1.1 kmh N 3.1 mph5.0 kmh 30.09 in1019.0 mb 0.00 in0.0 mm 0.00 in0.0 mm 0.02 in0.5 mm
06:30 AM 65.1°F18.4°C 57.8°F14.3°C 77% 0.7 mph NW1.1 kmh NW 1.6 mph2.6 kmh 30.09 in1019.0 mb 0.00 in0.0 mm 0.00 in0.0 mm 0.02 in0.5 mm
06:15 AM 61.2°F16.2°C 56.3°F13.5°C 84% Calm Calm 3.1 mph5.0 kmh 30.09 in1019.0 mb 0.00 in0.0 mm 0.00 in0.0 mm 0.02 in0.5 mm
06:00 AM 61.0°F16.1°C 54.8°F12.7°C 80% 3.1 mph NNW5.0 kmh NNW 4.5 mph7.2 kmh 30.09 in1019.0 mb 0.00 in0.0 mm 0.00 in0.0 mm 0.02 in0.5 mm
05:45 AM 61.5°F16.4°C 57.6°F14.2°C 87% 0.7 mph W1.1 kmh W 1.6 mph2.6 kmh 30.09 in1019.0 mb 0.00 in0.0 mm 0.00 in0.0 mm 0.02 in0.5 mm
05:30 AM 58.3°F14.6°C 55.7°F13.2°C 91% 0.7 mph SW1.1 kmh SW 2.2 mph3.5 kmh 30.09 in1019.0 mb 0.00 in0.0 mm 0.00 in0.0 mm 0.02 in0.5 mm
05:15 AM 57.2°F14.0°C 54.9°F12.7°C 92% Calm Calm 2.2 mph3.5 kmh 30.09 in1019.0 mb 0.00 in0.0 mm 0.00 in0.0 mm 0.02 in0.5 mm
05:00 AM 57.2°F14.0°C 54.9°F12.7°C 92% 1.6 mph NNW2.6 kmh NNW 2.2 mph3.5 kmh 30.09 in1019.0 mb 0.00 in0.0 mm 0.00 in0.0 mm 0.02 in0.5 mm
04:45 AM 57.0°F13.9°C 55.0°F12.8°C 93% Calm Calm 1.6 mph2.6 kmh 30.09 in1019.0 mb 0.00 in0.0 mm 0.00 in0.0 mm 0.02 in0.5 mm
04:30 AM 57.2°F14.0°C 55.5°F13.1°C 94% Calm Calm 2.2 mph3.5 kmh 30.09 in1019.0 mb 0.00 in0.0 mm 0.00 in0.0 mm 0.02 in0.5 mm
04:15 AM 56.8°F13.8°C 55.1°F12.8°C 94% Calm Calm 3.1 mph5.0 kmh 30.09 in1019.0 mb 0.00 in0.0 mm 0.00 in0.0 mm 0.02 in0.5 mm
04:00 AM 57.0°F13.9°C 55.3°F12.9°C 94% 1.6 mph NW2.6 kmh NW 4.5 mph7.2 kmh 30.09 in1019.0 mb 0.00 in0.0 mm 0.00 in0.0 mm 0.02 in0.5 mm
03:45 AM 57.0°F13.9°C 55.0°F12.8°C 93% 0.7 mph WNW1.1 kmh WNW 4.5 mph7.2 kmh 30.09 in1019.0 mb 0.00 in0.0 mm 0.00 in0.0 mm 0.02 in0.5 mm
03:30 AM 57.2°F14.0°C 55.2°F12.9°C 93% Calm Calm 4.5 mph7.2 kmh 30.09 in1019.0 mb 0.00 in0.0 mm 0.00 in0.0 mm 0.02 in0.5 mm
03:15 AM 57.6°F14.2°C 55.3°F12.9°C 92% 0.7 mph NW1.1 kmh NW 3.1 mph5.0 kmh 30.09 in1019.0 mb 0.00 in0.0 mm 0.00 in0.0 mm 0.02 in0.5 mm
03:00 AM 57.7°F14.3°C 54.8°F12.7°C 90% Calm Calm 2.2 mph3.5 kmh 30.09 in1019.0 mb 0.00 in0.0 mm 0.00 in0.0 mm 0.02 in0.5 mm
02:45 AM 57.7°F14.3°C 54.2°F12.3°C 88% Calm Calm 0.7 mph1.1 kmh 30.09 in1019.0 mb 0.00 in0.0 mm 0.00 in0.0 mm 0.02 in0.5 mm
02:30 AM 57.7°F14.3°C 54.2°F12.3°C 88% Calm Calm 2.2 mph3.5 kmh 30.09 in1019.0 mb 0.00 in0.0 mm 0.00 in0.0 mm 0.02 in0.5 mm
02:15 AM 57.9°F14.4°C 54.1°F12.3°C 87% 0.7 mph SE1.1 kmh SE 3.1 mph5.0 kmh 30.09 in1019.0 mb 0.00 in0.0 mm 0.00 in0.0 mm 0.02 in0.5 mm
02:00 AM 57.9°F14.4°C 54.4°F12.4°C 88% 0.7 mph SE1.1 kmh SE 3.8 mph6.1 kmh 30.09 in1019.0 mb 0.00 in0.0 mm 0.00 in0.0 mm 0.02 in0.5 mm
01:45 AM 57.7°F14.3°C 53.9°F12.2°C 87% Calm Calm 1.6 mph2.6 kmh 30.09 in1019.0 mb 0.01 in0.3 mm 0.00 in0.0 mm 0.02 in0.5 mm
01:30 AM 57.9°F14.4°C 54.4°F12.4°C 88% 2.2 mph NNE3.5 kmh NNE 6.0 mph9.7 kmh 30.09 in1019.0 mb 0.02 in0.5 mm 0.00 in0.0 mm 0.02 in0.5 mm
01:15 AM 57.9°F14.4°C 54.1°F12.3°C 87% 1.6 mph E2.6 kmh E 4.5 mph7.2 kmh 30.10 in1019.3 mb 0.02 in0.5 mm 0.00 in0.0 mm 0.02 in0.5 mm
01:00 AM 58.3°F14.6°C 53.5°F11.9°C 84% 3.1 mph NW5.0 kmh NW 9.2 mph14.8 kmh 30.11 in1019.6 mb 0.02 in0.5 mm 0.01 in0.3 mm 0.02 in0.5 mm
12:45 AM 60.8°F16.0°C 53.2°F11.8°C 76% 4.5 mph N7.2 kmh N 8.3 mph13.4 kmh 30.11 in1019.6 mb 0.01 in0.3 mm 0.04 in1.0 mm 0.01 in0.3 mm
12:30 AM 59.7°F15.4°C 53.9°F12.2°C 81% 3.8 mph NW6.1 kmh NW 11.4 mph18.3 kmh 30.11 in1019.6 mb 0.00 in0.0 mm 0.00 in0.0 mm 0.00 in0.0 mm
12:15 AM 58.3°F14.6°C 53.2°F11.8°C 83% 1.6 mph NNE2.6 kmh NNE 2.2 mph3.5 kmh 30.11 in1019.6 mb 0.00 in0.0 mm 0.00 in0.0 mm 0.00 in0.0 mm
12:00 AM 58.6°F14.8°C 52.8°F11.6°C 81% Calm Calm 0.7 mph1.1 kmh 30.10 in1019.3 mb 0.00 in0.0 mm 0.00 in0.0 mm 0.00 in0.0 mm